메인 페이지
METAR-TAF:

METAR-TAF

공항 :

블라디보스토크 국제공항

블라디보스토크, 러시아

위도: 43-07N, 경도: 131-56E, 고도: 184m

현재 날씨관측

예보는 24분 전, 20:30시(UTC)에 발표되었습니다.
8kt
온도 19°C
습도 94%
기압 1002 hPa
시정: 9000m
고도 3300ft 상공 구름 많음, 적란운.
약한소나기

METAR: UHWW 202030Z 10004MPS 9000 -SHRA BKN033CB 19/18 Q1002 R25L/290060 NOSIG RMK QFE750

시각: 06:54 (20:54 UTC)

예보

예보는 54분 전, 20:00시(UTC)에 발표되었습니다.
예보 대상 시간: 20일 21시부터 21일 21시까지 (UTC)
남남동6kt
시정: 3100m
고도 1100ft 상공 구름 많음
고도 1700ft 상공 구름 많음, 적란운.
약한소나기, 박무
일시적
20일 21시부터 21일 12시까지 (UTC)
남남동17kt, 순간 최대 풍속 27kt
시정: 0500m
고도 300ft 상공 구름 많음
고도 1100ft 상공 구름 많음, 적란운.
강한소나기

TAF: UHWW 202000Z 2021/2121 16003MPS 3100 -SHRA BR BKN011 BKN017CB TEMPO 2021/2112 16009G14MPS 0500 +SHRA BKN003 BKN011CB

4,000개 이상의 공항 관측 자료 및 예보 (METAR 및 TAF 보고).

지도상에서 검색 가능한 기상관측소가 노란 점과 빨간 점으로 표시되어 있습니다.

기상관측소 명을 보려면 표시 위로 마우스를 이동하세요.

날씨 관측과 예보를 보려면 클릭하세요.

지도 변경 : 확대하려면 엑스 표시가 있는 녹색 버튼, 축소하려면 빼기 표시가 있는 녹색 버튼, 다음 페이지의 지도를 보려면 녹색 화살표를 클릭하세요.


METAR-TAF: